Datong Airport


Codes: ZBDT/DAT
Name: Datong Airport
City: Datong
Country: China
Elevation: 3442 ft.

Photos at Datong Airport


   Photos courtesy of SpottingLog. You can add your own sightings and photos by signing up for a free trial today.



No photos found.

Weather at Datong Airport


Time (UTC)DescriptionTempratureWindCloud coverageVisibilityPressureHumidity
25-Jun-2024 15:00Scattered Clouds21°C7 mph, E40%10000m1012hPa33%
25-Jun-2024 18:00Scattered Clouds21°C2 mph, E50%10000m1012hPa35%
25-Jun-2024 21:00Broken Clouds19°C2 mph, SE65%10000m1013hPa36%
26-Jun-2024 00:00Scattered Clouds23°C2 mph, SE48%10000m1014hPa29%
26-Jun-2024 03:00Overcast Clouds27°C7 mph, S99%10000m1012hPa23%
26-Jun-2024 06:00Overcast Clouds29°C16 mph, SW98%10000m1010hPa25%
26-Jun-2024 09:00Broken Clouds26°C13 mph, W80%10000m1008hPa32%
26-Jun-2024 12:00Broken Clouds23°C2 mph, SW76%10000m1009hPa46%
26-Jun-2024 15:00Overcast Clouds23°C9 mph, NW99%10000m1011hPa45%
26-Jun-2024 18:00Overcast Clouds21°C4 mph, NE98%10000m1010hPa51%
26-Jun-2024 21:00Overcast Clouds20°C4 mph, E100%10000m1010hPa56%
27-Jun-2024 00:00Overcast Clouds23°C9 mph, S97%10000m1010hPa38%
27-Jun-2024 03:00Light Rain26°C11 mph, SW8%10000m1009hPa37%
27-Jun-2024 06:00Light Rain30°C9 mph, S8%10000m1006hPa32%
27-Jun-2024 09:00Scattered Clouds30°C16 mph, S44%10000m1003hPa29%
27-Jun-2024 12:00Light Rain24°C4 mph, S58%10000m1005hPa49%
27-Jun-2024 15:00Light Rain19°C18 mph, NE99%10000m1010hPa74%
27-Jun-2024 18:00Light Rain19°C7 mph, NE99%10000m1007hPa67%
27-Jun-2024 21:00Broken Clouds18°C4 mph, SE81%10000m1006hPa69%
28-Jun-2024 00:00Overcast Clouds22°C4 mph, SW91%10000m1006hPa52%
28-Jun-2024 03:00Overcast Clouds28°C9 mph, SW94%10000m1004hPa30%
28-Jun-2024 06:00Overcast Clouds31°C7 mph, SW90%10000m1002hPa23%
28-Jun-2024 09:00Overcast Clouds32°C7 mph, S100%10000m1000hPa24%
28-Jun-2024 12:00Overcast Clouds28°C9 mph, S100%10000m1001hPa31%
28-Jun-2024 15:00Overcast Clouds25°C2 mph, SE100%10000m1002hPa36%
28-Jun-2024 18:00Overcast Clouds23°C4 mph, SE100%10000m1001hPa40%
28-Jun-2024 21:00Overcast Clouds22°C4 mph, E100%10000m1001hPa47%
29-Jun-2024 00:00Overcast Clouds24°C2 mph, SE100%10000m1001hPa46%
29-Jun-2024 03:00Light Rain27°C2 mph, SE100%10000m1000hPa41%
29-Jun-2024 06:00Light Rain29°C13 mph, S100%10000m998hPa35%
29-Jun-2024 09:00Overcast Clouds23°C11 mph, SW100%10000m1000hPa59%
29-Jun-2024 12:00Light Rain20°C2 mph, S100%10000m1001hPa69%
29-Jun-2024 15:00Overcast Clouds19°C7 mph, SE100%10000m1002hPa74%
29-Jun-2024 18:00Light Rain19°C2 mph, NE100%10000m1001hPa76%
29-Jun-2024 21:00Light Rain19°C2 mph, SE100%10000m1001hPa77%
30-Jun-2024 00:00Light Rain21°C2 mph, S79%10000m1001hPa65%
30-Jun-2024 03:00Light Rain25°C4 mph, NW5%10000m999hPa46%
30-Jun-2024 06:00Few Clouds29°C9 mph, NW11%10000m997hPa28%
30-Jun-2024 09:00Broken Clouds26°C22 mph, NW51%10000m997hPa36%
30-Jun-2024 12:00Broken Clouds24°C0 mph, S53%10000m999hPa42%